sensor_id;sensor_type;location;lat;lon;timestamp;pressure;altitude;pressure_sealevel;temperature;humidity
31092;BME280;67728;53.122;12.776;2023-02-26T00:01:11;100460.91;;;-1.49;78.38
31092;BME280;67728;53.122;12.776;2023-02-26T00:02:43;100468.16;;;-1.62;78.70
31092;BME280;67728;53.122;12.776;2023-02-26T00:04:15;100463.56;;;-1.74;78.64
31092;BME280;67728;53.122;12.776;2023-02-26T00:05:46;100470.94;;;-1.53;77.42
31092;BME280;67728;53.122;12.776;2023-02-26T00:07:17;100467.63;;;-1.51;77.12
31092;BME280;67728;53.122;12.776;2023-02-26T00:08:49;100468.56;;;-1.47;78.45
31092;BME280;67728;53.122;12.776;2023-02-26T00:10:20;100482.66;;;-1.58;77.57
31092;BME280;67728;53.122;12.776;2023-02-26T00:11:52;100475.50;;;-1.71;77.18
31092;BME280;67728;53.122;12.776;2023-02-26T00:13:23;100480.25;;;-1.82;78.14
31092;BME280;67728;53.122;12.776;2023-02-26T00:14:57;100477.03;;;-1.76;78.89
31092;BME280;67728;53.122;12.776;2023-02-26T00:16:31;100487.66;;;-1.61;77.75
31092;BME280;67728;53.122;12.776;2023-02-26T00:18:05;100485.28;;;-1.55;76.64
31092;BME280;67728;53.122;12.776;2023-02-26T00:19:37;100486.75;;;-1.63;76.29
31092;BME280;67728;53.122;12.776;2023-02-26T00:21:14;100487.75;;;-1.58;77.06
31092;BME280;67728;53.122;12.776;2023-02-26T00:22:47;100492.84;;;-1.58;78.33
31092;BME280;67728;53.122;12.776;2023-02-26T00:24:18;100490.47;;;-1.52;77.08
31092;BME280;67728;53.122;12.776;2023-02-26T00:25:50;100494.69;;;-1.81;77.35
31092;BME280;67728;53.122;12.776;2023-02-26T00:27:22;100494.63;;;-1.83;78.39
31092;BME280;67728;53.122;12.776;2023-02-26T00:28:54;100500.13;;;-1.70;76.69
31092;BME280;67728;53.122;12.776;2023-02-26T00:30:28;100498.50;;;-1.67;77.06
31092;BME280;67728;53.122;12.776;2023-02-26T00:32:00;100490.31;;;-1.87;78.40
31092;BME280;67728;53.122;12.776;2023-02-26T00:33:32;100496.00;;;-1.94;78.84
31092;BME280;67728;53.122;12.776;2023-02-26T00:35:04;100505.13;;;-1.72;76.92
31092;BME280;67728;53.122;12.776;2023-02-26T00:36:40;100501.38;;;-1.85;78.73
31092;BME280;67728;53.122;12.776;2023-02-26T00:38:15;100507.88;;;-1.66;77.10
31092;BME280;67728;53.122;12.776;2023-02-26T00:39:54;100504.00;;;-1.53;76.62
31092;BME280;67728;53.122;12.776;2023-02-26T00:41:29;100511.03;;;-1.45;76.67
31092;BME280;67728;53.122;12.776;2023-02-26T00:43:00;100508.00;;;-1.33;74.85
31092;BME280;67728;53.122;12.776;2023-02-26T00:44:33;100505.66;;;-1.26;75.30
31092;BME280;67728;53.122;12.776;2023-02-26T00:46:13;100508.09;;;-1.30;77.32
31092;BME280;67728;53.122;12.776;2023-02-26T00:47:53;100513.28;;;-1.26;75.64
31092;BME280;67728;53.122;12.776;2023-02-26T00:49:36;100521.34;;;-1.40;76.50
31092;BME280;67728;53.122;12.776;2023-02-26T00:51:19;100526.47;;;-1.39;78.61
31092;BME280;67728;53.122;12.776;2023-02-26T00:53:03;100518.94;;;-1.36;77.00
31092;BME280;67728;53.122;12.776;2023-02-26T00:54:39;100520.13;;;-1.25;76.81
31092;BME280;67728;53.122;12.776;2023-02-26T00:56:09;100528.59;;;-1.24;76.18
31092;BME280;67728;53.122;12.776;2023-02-26T00:57:41;100528.75;;;-1.18;74.97
31092;BME280;67728;53.122;12.776;2023-02-26T00:59:12;100528.06;;;-1.12;76.13
31092;BME280;67728;53.122;12.776;2023-02-26T01:00:44;100532.59;;;-1.02;73.82
31092;BME280;67728;53.122;12.776;2023-02-26T01:02:17;100538.56;;;-1.02;76.45
31092;BME280;67728;53.122;12.776;2023-02-26T01:03:49;100538.56;;;-1.02;75.95
31092;BME280;67728;53.122;12.776;2023-02-26T01:05:21;100536.88;;;-1.01;75.81
31092;BME280;67728;53.122;12.776;2023-02-26T01:06:57;100539.13;;;-1.12;77.85
31092;BME280;67728;53.122;12.776;2023-02-26T01:08:30;100539.31;;;-1.06;78.16
31092;BME280;67728;53.122;12.776;2023-02-26T01:10:03;100539.44;;;-1.00;75.72
31092;BME280;67728;53.122;12.776;2023-02-26T01:11:35;100542.22;;;-0.92;74.67
31092;BME280;67728;53.122;12.776;2023-02-26T01:13:08;100538.03;;;-0.90;74.00
31092;BME280;67728;53.122;12.776;2023-02-26T01:14:40;100536.44;;;-0.87;72.17
31092;BME280;67728;53.122;12.776;2023-02-26T01:16:16;100540.69;;;-0.87;73.79
31092;BME280;67728;53.122;12.776;2023-02-26T01:17:55;100541.78;;;-0.78;72.72
31092;BME280;67728;53.122;12.776;2023-02-26T01:19:33;100550.38;;;-0.73;72.48
31092;BME280;67728;53.122;12.776;2023-02-26T01:21:12;100547.91;;;-0.71;72.59
31092;BME280;67728;53.122;12.776;2023-02-26T01:22:51;100555.56;;;-0.70;73.63
31092;BME280;67728;53.122;12.776;2023-02-26T01:24:24;100554.78;;;-0.67;71.36
31092;BME280;67728;53.122;12.776;2023-02-26T01:26:02;100556.31;;;-0.74;73.77
31092;BME280;67728;53.122;12.776;2023-02-26T01:27:37;100567.03;;;-0.85;73.79
31092;BME280;67728;53.122;12.776;2023-02-26T01:29:10;100563.69;;;-0.83;73.70
31092;BME280;67728;53.122;12.776;2023-02-26T01:30:42;100559.75;;;-0.72;72.04
31092;BME280;67728;53.122;12.776;2023-02-26T01:32:16;100564.94;;;-0.69;73.52
31092;BME280;67728;53.122;12.776;2023-02-26T01:33:55;100575.75;;;-0.76;74.05
31092;BME280;67728;53.122;12.776;2023-02-26T01:35:37;100569.09;;;-0.72;73.90
31092;BME280;67728;53.122;12.776;2023-02-26T01:37:20;100570.03;;;-0.69;71.42
31092;BME280;67728;53.122;12.776;2023-02-26T01:38:58;100570.16;;;-0.64;72.28
31092;BME280;67728;53.122;12.776;2023-02-26T01:41:03;100565.94;;;-0.64;73.19
31092;BME280;67728;53.122;12.776;2023-02-26T01:42:41;100575.41;;;-0.58;72.47
31092;BME280;67728;53.122;12.776;2023-02-26T01:44:21;100579.91;;;-0.49;71.41
31092;BME280;67728;53.122;12.776;2023-02-26T01:46:00;100576.50;;;-0.48;70.53
31092;BME280;67728;53.122;12.776;2023-02-26T01:47:40;100579.06;;;-0.48;71.62
31092;BME280;67728;53.122;12.776;2023-02-26T01:49:18;100576.47;;;-0.51;71.31
31092;BME280;67728;53.122;12.776;2023-02-26T01:50:48;100579.69;;;-0.57;73.76
31092;BME280;67728;53.122;12.776;2023-02-26T01:54:32;100586.66;;;-0.51;72.33
31092;BME280;67728;53.122;12.776;2023-02-26T01:56:09;100591.66;;;-0.54;71.32
31092;BME280;67728;53.122;12.776;2023-02-26T01:57:43;100595.13;;;-0.51;72.29
31092;BME280;67728;53.122;12.776;2023-02-26T01:59:15;100594.19;;;-0.54;73.71
31092;BME280;67728;53.122;12.776;2023-02-26T02:00:47;100594.19;;;-0.54;73.94
31092;BME280;67728;53.122;12.776;2023-02-26T02:02:21;100595.19;;;-0.49;70.51
31092;BME280;67728;53.122;12.776;2023-02-26T02:03:54;100600.91;;;-0.56;73.25
31092;BME280;67728;53.122;12.776;2023-02-26T02:05:28;100598.50;;;-0.52;72.26
31092;BME280;67728;53.122;12.776;2023-02-26T02:07:02;100599.22;;;-0.57;72.43
31092;BME280;67728;53.122;12.776;2023-02-26T02:08:35;100601.00;;;-0.53;71.10
31092;BME280;67728;53.122;12.776;2023-02-26T02:10:06;100607.91;;;-0.49;70.60
31092;BME280;67728;53.122;12.776;2023-02-26T02:11:51;100611.38;;;-0.46;70.43
31092;BME280;67728;53.122;12.776;2023-02-26T02:13:34;100606.25;;;-0.49;72.28
31092;BME280;67728;53.122;12.776;2023-02-26T02:15:10;100613.19;;;-0.43;70.85
31092;BME280;67728;53.122;12.776;2023-02-26T02:16:49;100618.31;;;-0.42;71.21
31092;BME280;67728;53.122;12.776;2023-02-26T02:18:31;100609.59;;;-0.50;72.95
31092;BME280;67728;53.122;12.776;2023-02-26T02:20:21;100613.19;;;-0.43;71.50
31092;BME280;67728;53.122;12.776;2023-02-26T02:22:12;100609.63;;;-0.48;72.74
31092;BME280;67728;53.122;12.776;2023-02-26T02:23:51;100618.22;;;-0.45;71.20
31092;BME280;67728;53.122;12.776;2023-02-26T02:25:37;100621.47;;;-0.50;74.42
31092;BME280;67728;53.122;12.776;2023-02-26T02:27:18;100621.53;;;-0.49;71.54
31092;BME280;67728;53.122;12.776;2023-02-26T02:29:19;100619.00;;;-0.47;71.21
31092;BME280;67728;53.122;12.776;2023-02-26T02:31:04;100625.78;;;-0.48;73.13
31092;BME280;67728;53.122;12.776;2023-02-26T02:32:40;100628.41;;;-0.45;71.66
31092;BME280;67728;53.122;12.776;2023-02-26T02:34:18;100633.47;;;-0.46;70.82
31092;BME280;67728;53.122;12.776;2023-02-26T02:35:55;100625.94;;;-0.43;70.69
31092;BME280;67728;53.122;12.776;2023-02-26T02:37:31;100627.63;;;-0.42;70.89
31092;BME280;67728;53.122;12.776;2023-02-26T02:39:07;100631.16;;;-0.37;71.68
31092;BME280;67728;53.122;12.776;2023-02-26T02:40:43;100630.06;;;-0.47;72.39
31092;BME280;67728;53.122;12.776;2023-02-26T02:42:22;100642.97;;;-0.41;71.85
31092;BME280;67728;53.122;12.776;2023-02-26T02:43:57;100642.03;;;-0.43;72.53
31092;BME280;67728;53.122;12.776;2023-02-26T02:45:37;100646.25;;;-0.45;73.22
31092;BME280;67728;53.122;12.776;2023-02-26T02:47:13;100652.94;;;-0.48;73.97
31092;BME280;67728;53.122;12.776;2023-02-26T02:48:48;100655.75;;;-0.39;70.46
31092;BME280;67728;53.122;12.776;2023-02-26T02:50:25;100655.75;;;-0.38;70.77
31092;BME280;67728;53.122;12.776;2023-02-26T02:52:01;100650.66;;;-0.38;70.78
31092;BME280;67728;53.122;12.776;2023-02-26T02:53:38;100664.13;;;-0.43;73.66
31092;BME280;67728;53.122;12.776;2023-02-26T02:55:16;100662.50;;;-0.41;72.72
31092;BME280;67728;53.122;12.776;2023-02-26T02:56:51;100660.06;;;-0.37;70.63
31092;BME280;67728;53.122;12.776;2023-02-26T02:58:29;100664.97;;;-0.43;72.67
31092;BME280;67728;53.122;12.776;2023-02-26T03:00:04;100658.31;;;-0.38;71.62
31092;BME280;67728;53.122;12.776;2023-02-26T03:01:36;100665.22;;;-0.35;71.80
31092;BME280;67728;53.122;12.776;2023-02-26T03:03:16;100665.94;;;-0.39;72.37
31092;BME280;67728;53.122;12.776;2023-02-26T03:04:50;100670.22;;;-0.38;72.95
31092;BME280;67728;53.122;12.776;2023-02-26T03:06:21;100670.91;;;-0.44;72.19
31092;BME280;67728;53.122;12.776;2023-02-26T03:07:56;100668.38;;;-0.42;72.58
31092;BME280;67728;53.122;12.776;2023-02-26T03:09:29;100671.81;;;-0.42;71.30
31092;BME280;67728;53.122;12.776;2023-02-26T03:11:00;100670.22;;;-0.38;72.57
31092;BME280;67728;53.122;12.776;2023-02-26T03:12:31;100671.06;;;-0.38;71.82
31092;BME280;67728;53.122;12.776;2023-02-26T03:14:04;100676.09;;;-0.41;71.88
31092;BME280;67728;53.122;12.776;2023-02-26T03:15:46;100681.03;;;-0.45;72.70
31092;BME280;67728;53.122;12.776;2023-02-26T03:17:26;100682.97;;;-0.37;71.73
31092;BME280;67728;53.122;12.776;2023-02-26T03:19:09;100684.28;;;-0.51;74.78
31092;BME280;67728;53.122;12.776;2023-02-26T03:20:48;100692.19;;;-0.42;70.91
31092;BME280;67728;53.122;12.776;2023-02-26T03:22:28;100700.03;;;-0.34;71.92
31092;BME280;67728;53.122;12.776;2023-02-26T03:24:06;100691.59;;;-0.33;72.39
31092;BME280;67728;53.122;12.776;2023-02-26T03:25:45;100692.22;;;-0.40;72.65
31092;BME280;67728;53.122;12.776;2023-02-26T03:27:23;100696.50;;;-0.39;72.82
31092;BME280;67728;53.122;12.776;2023-02-26T03:29:02;100693.16;;;-0.38;73.84
31092;BME280;67728;53.122;12.776;2023-02-26T03:30:38;100705.03;;;-0.37;72.57
31092;BME280;67728;53.122;12.776;2023-02-26T03:32:12;100700.88;;;-0.35;72.55
31092;BME280;67728;53.122;12.776;2023-02-26T03:33:53;100708.34;;;-0.41;72.93
31092;BME280;67728;53.122;12.776;2023-02-26T03:35:34;100706.59;;;-0.42;72.52
31092;BME280;67728;53.122;12.776;2023-02-26T03:37:07;100704.16;;;-0.39;69.97
31092;BME280;67728;53.122;12.776;2023-02-26T03:38:46;100717.00;;;-0.35;71.44
31092;BME280;67728;53.122;12.776;2023-02-26T03:40:24;100722.06;;;-0.36;72.94
31092;BME280;67728;53.122;12.776;2023-02-26T03:42:01;100714.53;;;-0.32;71.71
31092;BME280;67728;53.122;12.776;2023-02-26T03:43:37;100728.84;;;-0.37;71.36
31092;BME280;67728;53.122;12.776;2023-02-26T03:45:13;100736.59;;;-0.34;70.11
31092;BME280;67728;53.122;12.776;2023-02-26T03:46:47;100740.09;;;-0.30;69.22
31092;BME280;67728;53.122;12.776;2023-02-26T03:48:23;100732.56;;;-0.26;70.19
31092;BME280;67728;53.122;12.776;2023-02-26T03:49:59;100743.63;;;-0.25;69.15
31092;BME280;67728;53.122;12.776;2023-02-26T03:51:35;100751.22;;;-0.27;70.18
31092;BME280;67728;53.122;12.776;2023-02-26T03:53:10;100747.81;;;-0.27;71.86
31092;BME280;67728;53.122;12.776;2023-02-26T03:54:45;100744.19;;;-0.35;71.67
31092;BME280;67728;53.122;12.776;2023-02-26T03:56:23;100748.44;;;-0.34;71.96
31092;BME280;67728;53.122;12.776;2023-02-26T03:57:56;100738.25;;;-0.34;72.04
31092;BME280;67728;53.122;12.776;2023-02-26T03:59:27;100746.06;;;-0.30;69.95
31092;BME280;67728;53.122;12.776;2023-02-26T04:01:03;100745.88;;;-0.36;71.43
31092;BME280;67728;53.122;12.776;2023-02-26T04:02:40;100749.31;;;-0.34;71.41
31092;BME280;67728;53.122;12.776;2023-02-26T04:04:17;100749.28;;;-0.35;71.65
31092;BME280;67728;53.122;12.776;2023-02-26T04:05:51;100759.41;;;-0.37;70.58
31092;BME280;67728;53.122;12.776;2023-02-26T04:07:25;100753.63;;;-0.31;69.58
31092;BME280;67728;53.122;12.776;2023-02-26T04:08:57;100756.09;;;-0.34;70.85
31092;BME280;67728;53.122;12.776;2023-02-26T04:10:32;100756.19;;;-0.31;69.06
31092;BME280;67728;53.122;12.776;2023-02-26T04:12:04;100771.56;;;-0.28;70.10
31092;BME280;67728;53.122;12.776;2023-02-26T04:13:36;100767.25;;;-0.31;69.16
31092;BME280;67728;53.122;12.776;2023-02-26T04:15:08;100769.78;;;-0.31;69.45
31092;BME280;67728;53.122;12.776;2023-02-26T04:16:40;100766.47;;;-0.28;68.77
31092;BME280;67728;53.122;12.776;2023-02-26T04:18:12;100772.25;;;-0.34;71.29
31092;BME280;67728;53.122;12.776;2023-02-26T04:19:44;100768.53;;;-0.45;70.18
31092;BME280;67728;53.122;12.776;2023-02-26T04:21:18;100770.38;;;-0.39;70.02
31092;BME280;67728;53.122;12.776;2023-02-26T04:22:52;100772.16;;;-0.37;68.92
31092;BME280;67728;53.122;12.776;2023-02-26T04:24:23;100774.44;;;-0.46;70.92
31092;BME280;67728;53.122;12.776;2023-02-26T04:25:55;100780.97;;;-0.54;70.05
31092;BME280;67728;53.122;12.776;2023-02-26T04:27:27;100783.09;;;-0.41;67.90
31092;BME280;67728;53.122;12.776;2023-02-26T04:28:59;100791.44;;;-0.45;69.60
31092;BME280;67728;53.122;12.776;2023-02-26T04:30:30;100782.22;;;-0.41;68.98
31092;BME280;67728;53.122;12.776;2023-02-26T04:32:02;100784.91;;;-0.37;66.74
31092;BME280;67728;53.122;12.776;2023-02-26T04:33:34;100785.78;;;-0.36;66.10
31092;BME280;67728;53.122;12.776;2023-02-26T04:35:06;100793.50;;;-0.33;66.90
31092;BME280;67728;53.122;12.776;2023-02-26T04:36:37;100778.84;;;-0.40;67.76
31092;BME280;67728;53.122;12.776;2023-02-26T04:38:10;100784.69;;;-0.44;66.20
31092;BME280;67728;53.122;12.776;2023-02-26T04:39:41;100793.00;;;-0.50;67.15
31092;BME280;67728;53.122;12.776;2023-02-26T04:41:13;100790.34;;;-0.53;68.04
31092;BME280;67728;53.122;12.776;2023-02-26T04:42:44;100797.03;;;-0.56;68.26
31092;BME280;67728;53.122;12.776;2023-02-26T04:44:15;100796.44;;;-0.48;66.42
31092;BME280;67728;53.122;12.776;2023-02-26T04:45:47;100800.69;;;-0.48;68.34
31092;BME280;67728;53.122;12.776;2023-02-26T04:47:19;100802.75;;;-0.65;67.70
31092;BME280;67728;53.122;12.776;2023-02-26T04:48:51;100798.47;;;-0.65;70.78
31092;BME280;67728;53.122;12.776;2023-02-26T04:50:22;100805.91;;;-0.72;69.07
31092;BME280;67728;53.122;12.776;2023-02-26T04:51:54;100804.25;;;-0.70;70.15
31092;BME280;67728;53.122;12.776;2023-02-26T04:53:26;100805.97;;;-0.71;69.21
31092;BME280;67728;53.122;12.776;2023-02-26T04:54:58;100804.44;;;-0.64;69.27
31092;BME280;67728;53.122;12.776;2023-02-26T04:56:28;100807.47;;;-0.76;68.23
31092;BME280;67728;53.122;12.776;2023-02-26T04:58:01;100806.53;;;-0.79;69.95
31092;BME280;67728;53.122;12.776;2023-02-26T04:59:32;100805.03;;;-0.73;68.57
31092;BME280;67728;53.122;12.776;2023-02-26T05:01:04;100809.19;;;-0.76;68.45
31092;BME280;67728;53.122;12.776;2023-02-26T05:02:36;100801.69;;;-0.70;67.25
31092;BME280;67728;53.122;12.776;2023-02-26T05:04:06;100812.28;;;-0.85;69.23
31092;BME280;67728;53.122;12.776;2023-02-26T05:05:38;100821.97;;;-1.00;70.49
31092;BME280;67728;53.122;12.776;2023-02-26T05:07:10;100817.25;;;-0.89;70.91
31092;BME280;67728;53.122;12.776;2023-02-26T05:08:43;100826.41;;;-0.94;70.02
31092;BME280;67728;53.122;12.776;2023-02-26T05:10:14;100825.47;;;-0.96;70.16
31092;BME280;67728;53.122;12.776;2023-02-26T05:11:45;100833.19;;;-0.95;69.03
31092;BME280;67728;53.122;12.776;2023-02-26T05:13:17;100824.03;;;-0.90;69.96
31092;BME280;67728;53.122;12.776;2023-02-26T05:14:48;100833.53;;;-0.84;68.35
31092;BME280;67728;53.122;12.776;2023-02-26T05:16:20;100831.69;;;-0.88;71.04
31092;BME280;67728;53.122;12.776;2023-02-26T05:17:52;100837.97;;;-1.04;71.71
31092;BME280;67728;53.122;12.776;2023-02-26T05:19:24;100835.34;;;-1.05;70.13
31092;BME280;67728;53.122;12.776;2023-02-26T05:20:55;100835.44;;;-1.04;69.73
31092;BME280;67728;53.122;12.776;2023-02-26T05:22:27;100839.50;;;-1.09;70.95
31092;BME280;67728;53.122;12.776;2023-02-26T05:23:59;100835.72;;;-1.20;71.44
31092;BME280;67728;53.122;12.776;2023-02-26T05:25:31;100848.56;;;-1.17;71.50
31092;BME280;67728;53.122;12.776;2023-02-26T05:27:03;100850.91;;;-1.23;73.06
31092;BME280;67728;53.122;12.776;2023-02-26T05:28:35;100852.88;;;-1.14;70.01
31092;BME280;67728;53.122;12.776;2023-02-26T05:30:09;100861.94;;;-1.23;72.80
31092;BME280;67728;53.122;12.776;2023-02-26T05:31:41;100866.19;;;-1.22;72.50
31092;BME280;67728;53.122;12.776;2023-02-26T05:33:13;100861.84;;;-1.26;72.32
31092;BME280;67728;53.122;12.776;2023-02-26T05:34:43;100861.88;;;-1.24;70.98
31092;BME280;67728;53.122;12.776;2023-02-26T05:36:15;100864.53;;;-1.21;71.90
31092;BME280;67728;53.122;12.776;2023-02-26T05:37:46;100870.28;;;-1.27;70.91
31092;BME280;67728;53.122;12.776;2023-02-26T05:39:19;100876.44;;;-1.20;70.63
31092;BME280;67728;53.122;12.776;2023-02-26T05:40:55;100877.34;;;-1.18;71.67
31092;BME280;67728;53.122;12.776;2023-02-26T05:42:26;100879.81;;;-1.45;73.90
31092;BME280;67728;53.122;12.776;2023-02-26T05:43:58;100883.13;;;-1.47;73.04
31092;BME280;67728;53.122;12.776;2023-02-26T05:45:30;100889.06;;;-1.47;73.44
31092;BME280;67728;53.122;12.776;2023-02-26T05:47:01;100884.03;;;-1.45;71.94
31092;BME280;67728;53.122;12.776;2023-02-26T05:48:33;100894.56;;;-1.35;71.39
31092;BME280;67728;53.122;12.776;2023-02-26T05:50:06;100895.31;;;-1.39;71.72
31092;BME280;67728;53.122;12.776;2023-02-26T05:51:38;100891.22;;;-1.34;71.69
31092;BME280;67728;53.122;12.776;2023-02-26T05:53:11;100894.22;;;-1.45;72.91
31092;BME280;67728;53.122;12.776;2023-02-26T05:54:44;100900.44;;;-1.37;71.48
31092;BME280;67728;53.122;12.776;2023-02-26T05:56:16;100905.41;;;-1.40;71.54
31092;BME280;67728;53.122;12.776;2023-02-26T05:57:48;100908.97;;;-1.59;73.11
31092;BME280;67728;53.122;12.776;2023-02-26T05:59:19;100909.84;;;-1.58;73.75
31092;BME280;67728;53.122;12.776;2023-02-26T06:00:51;100921.53;;;-1.63;73.66
31092;BME280;67728;53.122;12.776;2023-02-26T06:02:23;100918.19;;;-1.62;74.06
31092;BME280;67728;53.122;12.776;2023-02-26T06:03:55;100916.81;;;-1.76;73.11
31092;BME280;67728;53.122;12.776;2023-02-26T06:05:26;100923.59;;;-1.75;74.52
31092;BME280;67728;53.122;12.776;2023-02-26T06:06:57;100922.00;;;-1.73;74.92
31092;BME280;67728;53.122;12.776;2023-02-26T06:08:28;100925.13;;;-1.81;74.24
31092;BME280;67728;53.122;12.776;2023-02-26T06:10:01;100932.81;;;-1.79;74.89
31092;BME280;67728;53.122;12.776;2023-02-26T06:11:32;100924.00;;;-1.65;71.52
31092;BME280;67728;53.122;12.776;2023-02-26T06:13:03;100938.69;;;-1.58;72.99
31092;BME280;67728;53.122;12.776;2023-02-26T06:14:35;100934.00;;;-1.69;72.77
31092;BME280;67728;53.122;12.776;2023-02-26T06:16:06;100944.47;;;-1.62;71.47
31092;BME280;67728;53.122;12.776;2023-02-26T06:17:38;100933.03;;;-1.73;73.42
31092;BME280;67728;53.122;12.776;2023-02-26T06:19:10;100937.47;;;-1.67;72.59
31092;BME280;67728;53.122;12.776;2023-02-26T06:20:42;100933.31;;;-1.65;71.62
31092;BME280;67728;53.122;12.776;2023-02-26T06:22:14;100947.34;;;-1.53;70.85
31092;BME280;67728;53.122;12.776;2023-02-26T06:23:45;100941.50;;;-1.50;72.02
31092;BME280;67728;53.122;12.776;2023-02-26T06:25:18;100952.56;;;-1.50;72.63
31092;BME280;67728;53.122;12.776;2023-02-26T06:26:49;100948.91;;;-1.56;72.47
31092;BME280;67728;53.122;12.776;2023-02-26T06:28:21;100953.72;;;-1.64;72.16
31092;BME280;67728;53.122;12.776;2023-02-26T06:29:54;100954.59;;;-1.86;73.34
31092;BME280;67728;53.122;12.776;2023-02-26T06:31:25;100955.47;;;-1.63;71.13
31092;BME280;67728;53.122;12.776;2023-02-26T06:32:57;100964.00;;;-1.61;72.42
31092;BME280;67728;53.122;12.776;2023-02-26T06:34:29;100959.16;;;-1.55;71.97
31092;BME280;67728;53.122;12.776;2023-02-26T06:36:00;100964.19;;;-1.78;74.19
31092;BME280;67728;53.122;12.776;2023-02-26T06:37:32;100966.44;;;-1.64;72.30
31092;BME280;67728;53.122;12.776;2023-02-26T06:39:04;100973.97;;;-2.10;75.91
31092;BME280;67728;53.122;12.776;2023-02-26T06:40:37;100982.13;;;-1.96;76.31
31092;BME280;67728;53.122;12.776;2023-02-26T06:42:07;100985.66;;;-1.93;75.35
31092;BME280;67728;53.122;12.776;2023-02-26T06:43:40;100983.41;;;-1.85;75.00
31092;BME280;67728;53.122;12.776;2023-02-26T06:45:11;100984.47;;;-1.80;73.96
31092;BME280;67728;53.122;12.776;2023-02-26T06:46:43;100994.69;;;-1.78;74.87
31092;BME280;67728;53.122;12.776;2023-02-26T06:48:14;100992.94;;;-1.79;74.88
31092;BME280;67728;53.122;12.776;2023-02-26T06:49:46;100987.88;;;-1.79;74.40
31092;BME280;67728;53.122;12.776;2023-02-26T06:51:18;100986.38;;;-1.74;74.65
31092;BME280;67728;53.122;12.776;2023-02-26T06:52:49;100988.31;;;-1.67;73.68
31092;BME280;67728;53.122;12.776;2023-02-26T06:54:20;100991.09;;;-1.61;73.74
31092;BME280;67728;53.122;12.776;2023-02-26T06:55:52;100989.25;;;-1.65;73.61
31092;BME280;67728;53.122;12.776;2023-02-26T06:57:24;100992.16;;;-1.78;74.89
31092;BME280;67728;53.122;12.776;2023-02-26T06:58:55;100999.66;;;-1.59;73.83
31092;BME280;67728;53.122;12.776;2023-02-26T07:00:26;100995.72;;;-1.51;74.15
31092;BME280;67728;53.122;12.776;2023-02-26T07:01:58;100999.88;;;-1.53;73.27
31092;BME280;67728;53.122;12.776;2023-02-26T07:03:30;101015.91;;;-1.56;75.38
31092;BME280;67728;53.122;12.776;2023-02-26T07:05:01;101021.22;;;-1.50;74.33
31092;BME280;67728;53.122;12.776;2023-02-26T07:06:33;101020.09;;;-1.34;71.94
31092;BME280;67728;53.122;12.776;2023-02-26T07:08:04;101018.28;;;-1.38;73.01
31092;BME280;67728;53.122;12.776;2023-02-26T07:09:36;101016.00;;;-1.31;72.46
31092;BME280;67728;53.122;12.776;2023-02-26T07:11:09;101027.09;;;-1.29;73.25
31092;BME280;67728;53.122;12.776;2023-02-26T07:12:41;101027.09;;;-1.29;73.15
31092;BME280;67728;53.122;12.776;2023-02-26T07:14:13;101030.88;;;-1.19;73.18
31092;BME280;67728;53.122;12.776;2023-02-26T07:15:45;101035.00;;;-1.21;73.28
31092;BME280;67728;53.122;12.776;2023-02-26T07:17:16;101047.72;;;-1.21;73.87
31092;BME280;67728;53.122;12.776;2023-02-26T07:18:50;101035.84;;;-1.22;73.20
31092;BME280;67728;53.122;12.776;2023-02-26T07:20:22;101039.66;;;-1.11;72.30
31092;BME280;67728;53.122;12.776;2023-02-26T07:21:54;101047.97;;;-0.91;71.22
31092;BME280;67728;53.122;12.776;2023-02-26T07:23:25;101044.66;;;-0.89;71.10
31092;BME280;67728;53.122;12.776;2023-02-26T07:24:56;101045.28;;;-0.96;71.58
31092;BME280;67728;53.122;12.776;2023-02-26T07:26:30;101054.75;;;-0.92;71.51
31092;BME280;67728;53.122;12.776;2023-02-26T07:28:02;101059.13;;;-0.88;70.82
31092;BME280;67728;53.122;12.776;2023-02-26T07:29:34;101057.25;;;-0.93;71.91
31092;BME280;67728;53.122;12.776;2023-02-26T07:31:06;101067.94;;;-1.02;72.36
31092;BME280;67728;53.122;12.776;2023-02-26T07:32:38;101060.88;;;-0.87;71.45
31092;BME280;67728;53.122;12.776;2023-02-26T07:34:10;101063.50;;;-0.84;70.65
31092;BME280;67728;53.122;12.776;2023-02-26T07:35:41;101064.56;;;-0.79;70.55
31092;BME280;67728;53.122;12.776;2023-02-26T07:37:13;101069.97;;;-0.70;71.05
31092;BME280;67728;53.122;12.776;2023-02-26T07:38:44;101074.00;;;-0.76;71.74
31092;BME280;67728;53.122;12.776;2023-02-26T07:40:15;101083.34;;;-0.75;72.39
31092;BME280;67728;53.122;12.776;2023-02-26T07:41:48;101087.00;;;-0.69;72.08
31092;BME280;67728;53.122;12.776;2023-02-26T07:43:20;101090.53;;;-0.65;71.59
31092;BME280;67728;53.122;12.776;2023-02-26T07:44:52;101081.91;;;-0.69;72.26
31092;BME280;67728;53.122;12.776;2023-02-26T07:46:23;101085.09;;;-0.74;72.08
31092;BME280;67728;53.122;12.776;2023-02-26T07:47:55;101091.31;;;-0.66;70.51
31092;BME280;67728;53.122;12.776;2023-02-26T07:49:26;101088.28;;;-0.56;69.29
31092;BME280;67728;53.122;12.776;2023-02-26T07:50:58;101091.84;;;-0.51;70.24
31092;BME280;67728;53.122;12.776;2023-02-26T07:52:30;101093.50;;;-0.53;70.41
31092;BME280;67728;53.122;12.776;2023-02-26T07:54:01;101100.97;;;-0.57;69.94
31092;BME280;67728;53.122;12.776;2023-02-26T07:55:33;101103.03;;;-0.47;70.51
31092;BME280;67728;53.122;12.776;2023-02-26T07:57:06;101103.63;;;-0.54;71.58
31092;BME280;67728;53.122;12.776;2023-02-26T07:58:38;101102.50;;;-0.63;72.73
31092;BME280;67728;53.122;12.776;2023-02-26T08:00:10;101099.47;;;-0.52;70.85
31092;BME280;67728;53.122;12.776;2023-02-26T08:01:42;101109.75;;;-0.49;70.24
31092;BME280;67728;53.122;12.776;2023-02-26T08:03:13;101112.19;;;-0.52;70.36
31092;BME280;67728;53.122;12.776;2023-02-26T08:04:45;101108.88;;;-0.50;69.70
31092;BME280;67728;53.122;12.776;2023-02-26T08:06:17;101112.59;;;-0.40;69.77
31092;BME280;67728;53.122;12.776;2023-02-26T08:07:48;101105.28;;;-0.31;70.11